CDT,Max TemperatureF,Mean TemperatureF,Min TemperatureF,Max Dew PointF,MeanDew PointF,Min DewpointF,Max Humidity, Mean Humidity, Min Humidity, Max Sea Level PressureIn, Mean Sea Level PressureIn, Min Sea Level PressureIn, Max VisibilityMiles, Mean VisibilityMiles, Min VisibilityMiles, Max Wind SpeedMPH, Mean Wind SpeedMPH, Max Gust SpeedMPH,PrecipitationIn, CloudCover, Events, WindDirDegrees
2013-5-1,86,73,60,63,57,50,83,59,35,30.08,29.95,29.87,10,10,7,16,6,17,0.00,1,Thunderstorm,140
2013-5-2,66,50,33,59,44,34,100,92,77,30.36,30.25,30.06,10,8,2,25,9,32,0.00,7,Rain-Snow,340
2013-5-3,51,43,35,41,35,28,100,75,46,30.32,30.12,29.98,10,10,5,24,12,38,0.00,8,Rain,330
2013-5-4,48,42,37,41,38,36,100,85,66,30.04,29.94,29.88,10,9,4,15,7,22,0.00,7,Rain,323
2013-5-5,59,47,35,50,45,36,100,86,67,30.13,30.08,30.04,10,10,5,13,3,24,0.00,6,,317
2013-5-6,60,55,48,54,51,48,100,90,72,30.14,30.09,30.05,10,6,2,10,4,,0.00,6,,332
2013-5-7,77,60,42,61,51,43,100,76,36,30.12,30.06,29.99,10,7,0,6,0,,0.00,0,Fog,126
2013-5-8,80,66,53,64,58,54,100,80,42,30.10,29.99,29.90,10,10,4,18,3,24,0.00,2,Rain-Thunderstorm,118
2013-5-9,73,66,60,68,62,59,100,86,65,29.99,29.94,29.87,10,8,1,13,5,34,0.00,7,Rain-Thunderstorm,230
2013-5-10,69,61,53,63,58,52,100,87,60,30.09,30.00,29.93,10,8,0,15,4,18,0.00,5,Fog-Rain-Thunderstorm,344
2013-5-11,73,60,48,61,48,37,100,71,29,30.25,30.15,30.08,10,7,0,20,3,29,0.00,2,Fog,332
2013-5-12,68,54,41,52,42,32,100,66,30,30.31,30.24,30.17,10,10,7,8,1,,0.00,2,Rain,1
2013-5-13,82,65,48,61,52,46,100,65,36,30.18,30.11,30.04,10,10,10,15,3,23,0.00,1,,215
2013-5-14,89,76,62,55,53,50,68,46,27,30.06,30.01,29.95,10,10,10,21,8,28,0.00,0,,200
2013-5-15,78,72,66,70,62,50,100,75,46,30.00,29.96,29.86,10,10,3,17,9,22,0.00,3,Rain-Thunderstorm,171
2013-5-16,71,66,62,70,65,63,100,97,78,29.91,29.87,29.84,10,8,1,8,2,,0.00,5,Rain,112
2013-5-17,82,71,60,70,64,61,100,83,51,29.95,29.91,29.88,10,8,1,7,1,,0.00,4,,114
2013-5-18,87,76,66,77,71,66,100,83,62,29.93,29.87,29.78,10,7,5,14,4,17,0.00,3,,142
2013-5-19,87,78,69,72,65,61,100,64,46,29.88,29.75,29.63,10,10,5,21,9,29,0.00,2,Rain-Thunderstorm,176
2013-5-20,80,72,64,73,67,59,100,91,61,29.83,29.77,29.68,10,9,2,20,8,31,0.00,6,Rain-Thunderstorm,115
2013-5-21,68,64,60,68,63,61,100,100,88,29.89,29.81,29.63,10,10,5,22,4,30,0.00,5,Rain-Thunderstorm,205
2013-5-22,75,65,55,63,58,55,100,79,53,29.96,29.88,29.81,10,10,4,10,4,,0.00,1,,247
2013-5-23,73,64,55,61,58,54,100,79,57,30.17,30.08,29.96,10,10,10,6,1,,0.00,1,,37
2013-5-24,80,70,59,63,58,54,88,70,51,30.28,30.21,30.15,10,10,10,13,5,18,0.00,0,,102
2013-5-25,86,73,60,66,61,54,83,66,48,30.23,30.16,30.06,10,10,10,13,5,17,0.00,1,,151
2013-5-26,84,76,69,68,65,61,94,70,51,30.12,30.05,29.98,10,10,10,20,8,25,0.00,2,,165
2013-5-27,86,78,69,70,65,61,94,67,48,30.00,29.89,29.80,10,10,10,23,12,31,0.00,1,,170
2013-5-28,86,80,73,68,65,63,83,65,48,29.87,29.82,29.76,10,10,10,22,13,33,0.00,0,Rain,173
2013-5-29,82,78,73,68,65,64,73,66,54,29.88,29.83,29.73,10,10,10,22,12,32,0.00,3,Thunderstorm,158
2013-5-30,78,71,64,72,67,63,100,91,65,29.83,29.77,29.71,10,9,1,29,10,39,0.07,6,Rain-Thunderstorm,152
2013-5-31,86,75,64,77,72,64,100,86,62,29.81,29.75,29.66,10,10,3,18,9,32,0.00,5,Rain-Thunderstorm,176